sensor_id;sensor_type;location;lat;lon;timestamp;P1;durP1;ratioP1;P2;durP2;ratioP2
5475;SDS011;2760;50.000;9.194;2023-02-28T00:01:46;3.57;;;3.00;;
5475;SDS011;2760;50.000;9.194;2023-02-28T00:04:13;4.30;;;3.90;;
5475;SDS011;2760;50.000;9.194;2023-02-28T00:06:39;3.97;;;3.20;;
5475;SDS011;2760;50.000;9.194;2023-02-28T00:09:07;6.20;;;3.33;;
5475;SDS011;2760;50.000;9.194;2023-02-28T00:11:34;3.70;;;3.13;;
5475;SDS011;2760;50.000;9.194;2023-02-28T00:14:04;5.80;;;3.40;;
5475;SDS011;2760;50.000;9.194;2023-02-28T00:16:31;3.17;;;2.87;;
5475;SDS011;2760;50.000;9.194;2023-02-28T00:18:58;5.10;;;3.03;;
5475;SDS011;2760;50.000;9.194;2023-02-28T00:21:25;3.10;;;2.90;;
5475;SDS011;2760;50.000;9.194;2023-02-28T00:23:52;3.90;;;3.37;;
5475;SDS011;2760;50.000;9.194;2023-02-28T00:26:20;3.27;;;3.03;;
5475;SDS011;2760;50.000;9.194;2023-02-28T00:28:48;5.63;;;3.37;;
5475;SDS011;2760;50.000;9.194;2023-02-28T00:31:19;4.80;;;3.20;;
5475;SDS011;2760;50.000;9.194;2023-02-28T00:33:47;6.03;;;4.30;;
5475;SDS011;2760;50.000;9.194;2023-02-28T00:36:14;12.40;;;3.60;;
5475;SDS011;2760;50.000;9.194;2023-02-28T00:38:41;4.50;;;3.67;;
5475;SDS011;2760;50.000;9.194;2023-02-28T00:41:08;4.20;;;3.83;;
5475;SDS011;2760;50.000;9.194;2023-02-28T00:43:36;5.47;;;3.90;;
5475;SDS011;2760;50.000;9.194;2023-02-28T00:46:04;4.20;;;3.80;;
5475;SDS011;2760;50.000;9.194;2023-02-28T00:48:33;3.70;;;3.47;;
5475;SDS011;2760;50.000;9.194;2023-02-28T00:51:03;6.33;;;3.47;;
5475;SDS011;2760;50.000;9.194;2023-02-28T00:53:31;6.63;;;3.77;;
5475;SDS011;2760;50.000;9.194;2023-02-28T00:55:58;3.70;;;3.40;;
5475;SDS011;2760;50.000;9.194;2023-02-28T00:58:26;3.87;;;3.40;;
5475;SDS011;2760;50.000;9.194;2023-02-28T01:00:53;4.13;;;3.73;;
5475;SDS011;2760;50.000;9.194;2023-02-28T01:03:20;4.30;;;3.90;;
5475;SDS011;2760;50.000;9.194;2023-02-28T01:05:50;2.80;;;2.60;;
5475;SDS011;2760;50.000;9.194;2023-02-28T01:08:18;4.03;;;3.73;;
5475;SDS011;2760;50.000;9.194;2023-02-28T01:10:45;7.47;;;4.17;;
5475;SDS011;2760;50.000;9.194;2023-02-28T01:13:13;3.50;;;3.20;;
5475;SDS011;2760;50.000;9.194;2023-02-28T01:15:41;3.43;;;3.17;;
5475;SDS011;2760;50.000;9.194;2023-02-28T01:18:11;3.43;;;3.17;;
5475;SDS011;2760;50.000;9.194;2023-02-28T01:20:38;3.53;;;3.23;;
5475;SDS011;2760;50.000;9.194;2023-02-28T01:23:07;4.20;;;3.33;;
5475;SDS011;2760;50.000;9.194;2023-02-28T01:25:34;3.70;;;3.43;;
5475;SDS011;2760;50.000;9.194;2023-02-28T01:28:03;3.47;;;3.17;;
5475;SDS011;2760;50.000;9.194;2023-02-28T01:30:31;6.50;;;4.07;;
5475;SDS011;2760;50.000;9.194;2023-02-28T01:32:58;4.90;;;3.80;;
5475;SDS011;2760;50.000;9.194;2023-02-28T01:35:26;4.30;;;3.90;;
5475;SDS011;2760;50.000;9.194;2023-02-28T01:37:53;4.23;;;3.90;;
5475;SDS011;2760;50.000;9.194;2023-02-28T01:40:21;3.53;;;3.23;;
5475;SDS011;2760;50.000;9.194;2023-02-28T01:42:48;5.80;;;3.70;;
5475;SDS011;2760;50.000;9.194;2023-02-28T01:45:20;5.90;;;3.40;;
5475;SDS011;2760;50.000;9.194;2023-02-28T01:47:52;8.03;;;3.43;;
5475;SDS011;2760;50.000;9.194;2023-02-28T01:50:24;5.60;;;3.70;;
5475;SDS011;2760;50.000;9.194;2023-02-28T01:52:58;4.77;;;3.20;;
5475;SDS011;2760;50.000;9.194;2023-02-28T01:55:31;4.63;;;3.80;;
5475;SDS011;2760;50.000;9.194;2023-02-28T01:58:00;4.33;;;3.93;;
5475;SDS011;2760;50.000;9.194;2023-02-28T02:00:30;4.70;;;4.17;;
5475;SDS011;2760;50.000;9.194;2023-02-28T02:02:58;5.57;;;4.07;;
5475;SDS011;2760;50.000;9.194;2023-02-28T02:05:28;6.03;;;4.30;;
5475;SDS011;2760;50.000;9.194;2023-02-28T02:07:57;4.67;;;4.23;;
5475;SDS011;2760;50.000;9.194;2023-02-28T02:10:30;5.10;;;3.80;;
5475;SDS011;2760;50.000;9.194;2023-02-28T02:13:05;5.13;;;4.23;;
5475;SDS011;2760;50.000;9.194;2023-02-28T02:15:41;5.43;;;4.03;;
5475;SDS011;2760;50.000;9.194;2023-02-28T02:18:14;4.40;;;4.00;;
5475;SDS011;2760;50.000;9.194;2023-02-28T02:21:04;4.13;;;3.83;;
5475;SDS011;2760;50.000;9.194;2023-02-28T02:23:52;3.90;;;3.70;;
5475;SDS011;2760;50.000;9.194;2023-02-28T02:26:47;5.43;;;4.53;;
5475;SDS011;2760;50.000;9.194;2023-02-28T02:29:26;5.70;;;4.30;;
5475;SDS011;2760;50.000;9.194;2023-02-28T02:32:14;4.73;;;4.03;;
5475;SDS011;2760;50.000;9.194;2023-02-28T02:34:57;4.37;;;4.00;;
5475;SDS011;2760;50.000;9.194;2023-02-28T02:37:36;5.10;;;3.97;;
5475;SDS011;2760;50.000;9.194;2023-02-28T02:40:10;5.10;;;4.63;;
5475;SDS011;2760;50.000;9.194;2023-02-28T02:42:41;5.10;;;4.60;;
5475;SDS011;2760;50.000;9.194;2023-02-28T02:45:17;4.13;;;3.80;;
5475;SDS011;2760;50.000;9.194;2023-02-28T02:47:48;6.30;;;4.20;;
5475;SDS011;2760;50.000;9.194;2023-02-28T02:50:19;6.10;;;4.40;;
5475;SDS011;2760;50.000;9.194;2023-02-28T02:52:52;4.87;;;4.37;;
5475;SDS011;2760;50.000;9.194;2023-02-28T02:55:23;7.57;;;4.17;;
5475;SDS011;2760;50.000;9.194;2023-02-28T02:57:52;4.53;;;4.10;;
5475;SDS011;2760;50.000;9.194;2023-02-28T03:00:25;6.80;;;6.03;;
5475;SDS011;2760;50.000;9.194;2023-02-28T03:02:57;5.23;;;4.73;;
5475;SDS011;2760;50.000;9.194;2023-02-28T03:05:28;7.67;;;5.90;;
5475;SDS011;2760;50.000;9.194;2023-02-28T03:08:02;6.13;;;4.60;;
5475;SDS011;2760;50.000;9.194;2023-02-28T03:10:32;4.60;;;4.20;;
5475;SDS011;2760;50.000;9.194;2023-02-28T03:16:02;4.47;;;3.83;;
5475;SDS011;2760;50.000;9.194;2023-02-28T03:18:47;4.73;;;4.30;;
5475;SDS011;2760;50.000;9.194;2023-02-28T03:21:27;5.60;;;4.20;;
5475;SDS011;2760;50.000;9.194;2023-02-28T03:23:59;5.27;;;4.70;;
5475;SDS011;2760;50.000;9.194;2023-02-28T03:26:32;4.83;;;4.13;;
5475;SDS011;2760;50.000;9.194;2023-02-28T03:29:05;4.63;;;3.93;;
5475;SDS011;2760;50.000;9.194;2023-02-28T03:31:38;8.47;;;4.30;;
5475;SDS011;2760;50.000;9.194;2023-02-28T03:34:12;6.20;;;5.10;;
5475;SDS011;2760;50.000;9.194;2023-02-28T03:36:45;5.33;;;4.83;;
5475;SDS011;2760;50.000;9.194;2023-02-28T03:39:17;5.70;;;4.93;;
5475;SDS011;2760;50.000;9.194;2023-02-28T03:41:47;10.50;;;4.77;;
5475;SDS011;2760;50.000;9.194;2023-02-28T03:44:21;7.50;;;5.73;;
5475;SDS011;2760;50.000;9.194;2023-02-28T03:46:52;6.87;;;5.57;;
5475;SDS011;2760;50.000;9.194;2023-02-28T03:49:22;6.93;;;5.20;;
5475;SDS011;2760;50.000;9.194;2023-02-28T03:51:54;5.57;;;4.77;;
5475;SDS011;2760;50.000;9.194;2023-02-28T03:54:25;7.60;;;5.10;;
5475;SDS011;2760;50.000;9.194;2023-02-28T03:56:57;6.30;;;5.00;;
5475;SDS011;2760;50.000;9.194;2023-02-28T03:59:29;4.90;;;4.50;;
5475;SDS011;2760;50.000;9.194;2023-02-28T04:02:00;5.03;;;4.40;;
5475;SDS011;2760;50.000;9.194;2023-02-28T04:04:28;14.97;;;5.00;;
5475;SDS011;2760;50.000;9.194;2023-02-28T04:07:02;5.23;;;4.83;;
5475;SDS011;2760;50.000;9.194;2023-02-28T04:09:30;6.67;;;5.00;;
5475;SDS011;2760;50.000;9.194;2023-02-28T04:11:57;5.40;;;4.77;;
5475;SDS011;2760;50.000;9.194;2023-02-28T04:14:27;8.30;;;5.70;;
5475;SDS011;2760;50.000;9.194;2023-02-28T04:16:54;11.23;;;6.07;;
5475;SDS011;2760;50.000;9.194;2023-02-28T04:19:21;5.60;;;4.87;;
5475;SDS011;2760;50.000;9.194;2023-02-28T04:21:50;6.20;;;5.10;;
5475;SDS011;2760;50.000;9.194;2023-02-28T04:24:20;5.07;;;4.17;;
5475;SDS011;2760;50.000;9.194;2023-02-28T04:26:50;7.03;;;4.90;;
5475;SDS011;2760;50.000;9.194;2023-02-28T04:29:19;5.73;;;5.13;;
5475;SDS011;2760;50.000;9.194;2023-02-28T04:31:49;5.50;;;5.00;;
5475;SDS011;2760;50.000;9.194;2023-02-28T04:34:18;7.90;;;5.17;;
5475;SDS011;2760;50.000;9.194;2023-02-28T04:36:46;5.43;;;4.63;;
5475;SDS011;2760;50.000;9.194;2023-02-28T04:39:14;4.73;;;4.23;;
5475;SDS011;2760;50.000;9.194;2023-02-28T04:41:44;5.40;;;4.90;;
5475;SDS011;2760;50.000;9.194;2023-02-28T04:44:12;5.57;;;5.00;;
5475;SDS011;2760;50.000;9.194;2023-02-28T04:46:39;6.07;;;4.63;;
5475;SDS011;2760;50.000;9.194;2023-02-28T04:49:06;4.77;;;4.37;;
5475;SDS011;2760;50.000;9.194;2023-02-28T04:51:33;5.70;;;5.13;;
5475;SDS011;2760;50.000;9.194;2023-02-28T04:54:00;5.43;;;4.67;;
5475;SDS011;2760;50.000;9.194;2023-02-28T04:56:27;8.23;;;4.83;;
5475;SDS011;2760;50.000;9.194;2023-02-28T04:58:55;5.60;;;4.93;;
5475;SDS011;2760;50.000;9.194;2023-02-28T05:01:23;6.10;;;5.60;;
5475;SDS011;2760;50.000;9.194;2023-02-28T05:03:52;7.67;;;5.50;;
5475;SDS011;2760;50.000;9.194;2023-02-28T05:06:21;6.00;;;5.40;;
5475;SDS011;2760;50.000;9.194;2023-02-28T05:08:50;11.53;;;5.77;;
5475;SDS011;2760;50.000;9.194;2023-02-28T05:11:17;5.00;;;4.60;;
5475;SDS011;2760;50.000;9.194;2023-02-28T05:13:45;5.63;;;4.50;;
5475;SDS011;2760;50.000;9.194;2023-02-28T05:16:15;5.83;;;5.00;;
5475;SDS011;2760;50.000;9.194;2023-02-28T05:18:43;7.53;;;5.00;;
5475;SDS011;2760;50.000;9.194;2023-02-28T05:21:18;6.57;;;5.30;;
5475;SDS011;2760;50.000;9.194;2023-02-28T05:23:51;11.57;;;7.40;;
5475;SDS011;2760;50.000;9.194;2023-02-28T05:26:18;14.03;;;8.40;;
5475;SDS011;2760;50.000;9.194;2023-02-28T05:28:46;11.90;;;8.37;;
5475;SDS011;2760;50.000;9.194;2023-02-28T05:31:17;19.77;;;8.27;;
5475;SDS011;2760;50.000;9.194;2023-02-28T05:33:45;13.53;;;9.47;;
5475;SDS011;2760;50.000;9.194;2023-02-28T05:36:12;14.10;;;7.27;;
5475;SDS011;2760;50.000;9.194;2023-02-28T05:38:40;11.80;;;9.47;;
5475;SDS011;2760;50.000;9.194;2023-02-28T05:41:07;13.80;;;7.67;;
5475;SDS011;2760;50.000;9.194;2023-02-28T05:43:34;24.70;;;8.40;;
5475;SDS011;2760;50.000;9.194;2023-02-28T05:46:03;17.10;;;8.20;;
5475;SDS011;2760;50.000;9.194;2023-02-28T05:48:33;14.50;;;7.77;;
5475;SDS011;2760;50.000;9.194;2023-02-28T05:51:02;18.40;;;10.00;;
5475;SDS011;2760;50.000;9.194;2023-02-28T05:53:29;24.40;;;9.33;;
5475;SDS011;2760;50.000;9.194;2023-02-28T05:55:57;18.47;;;8.30;;
5475;SDS011;2760;50.000;9.194;2023-02-28T05:58:24;17.90;;;8.80;;
5475;SDS011;2760;50.000;9.194;2023-02-28T06:00:55;8.00;;;6.30;;
5475;SDS011;2760;50.000;9.194;2023-02-28T06:03:23;12.80;;;7.40;;
5475;SDS011;2760;50.000;9.194;2023-02-28T06:05:51;10.20;;;7.03;;
5475;SDS011;2760;50.000;9.194;2023-02-28T06:08:19;11.03;;;6.80;;
5475;SDS011;2760;50.000;9.194;2023-02-28T06:10:46;12.33;;;7.53;;
5475;SDS011;2760;50.000;9.194;2023-02-28T06:13:13;10.43;;;6.80;;
5475;SDS011;2760;50.000;9.194;2023-02-28T06:15:40;9.83;;;7.00;;
5475;SDS011;2760;50.000;9.194;2023-02-28T06:18:07;8.67;;;6.90;;
5475;SDS011;2760;50.000;9.194;2023-02-28T06:20:35;11.83;;;7.83;;
5475;SDS011;2760;50.000;9.194;2023-02-28T06:23:03;12.20;;;7.60;;
5475;SDS011;2760;50.000;9.194;2023-02-28T06:25:30;11.47;;;6.77;;
5475;SDS011;2760;50.000;9.194;2023-02-28T06:27:57;12.80;;;7.23;;
5475;SDS011;2760;50.000;9.194;2023-02-28T06:30:24;12.00;;;6.70;;
5475;SDS011;2760;50.000;9.194;2023-02-28T06:32:53;7.30;;;6.33;;
5475;SDS011;2760;50.000;9.194;2023-02-28T06:35:21;11.60;;;6.70;;
5475;SDS011;2760;50.000;9.194;2023-02-28T06:37:49;10.93;;;7.53;;
5475;SDS011;2760;50.000;9.194;2023-02-28T06:40:18;11.90;;;7.53;;
5475;SDS011;2760;50.000;9.194;2023-02-28T06:42:45;12.13;;;8.90;;
5475;SDS011;2760;50.000;9.194;2023-02-28T06:45:12;18.37;;;8.97;;
5475;SDS011;2760;50.000;9.194;2023-02-28T06:47:40;14.23;;;9.87;;
5475;SDS011;2760;50.000;9.194;2023-02-28T06:50:11;13.80;;;9.10;;
5475;SDS011;2760;50.000;9.194;2023-02-28T06:52:38;15.67;;;10.33;;
5475;SDS011;2760;50.000;9.194;2023-02-28T06:55:08;16.07;;;9.27;;
5475;SDS011;2760;50.000;9.194;2023-02-28T06:57:36;18.43;;;9.77;;
5475;SDS011;2760;50.000;9.194;2023-02-28T07:00:06;14.90;;;9.60;;
5475;SDS011;2760;50.000;9.194;2023-02-28T07:02:34;14.63;;;8.47;;
5475;SDS011;2760;50.000;9.194;2023-02-28T07:05:02;12.13;;;8.07;;
5475;SDS011;2760;50.000;9.194;2023-02-28T07:07:30;24.83;;;8.47;;
5475;SDS011;2760;50.000;9.194;2023-02-28T07:09:57;11.60;;;8.70;;
5475;SDS011;2760;50.000;9.194;2023-02-28T07:12:24;14.30;;;8.00;;
5475;SDS011;2760;50.000;9.194;2023-02-28T07:14:53;13.40;;;8.77;;
5475;SDS011;2760;50.000;9.194;2023-02-28T07:17:21;22.03;;;9.60;;
5475;SDS011;2760;50.000;9.194;2023-02-28T07:19:48;26.73;;;9.93;;
5475;SDS011;2760;50.000;9.194;2023-02-28T07:22:15;25.80;;;8.60;;
5475;SDS011;2760;50.000;9.194;2023-02-28T07:24:42;18.67;;;7.93;;
5475;SDS011;2760;50.000;9.194;2023-02-28T07:27:08;26.03;;;8.40;;
5475;SDS011;2760;50.000;9.194;2023-02-28T07:29:35;17.70;;;9.90;;
5475;SDS011;2760;50.000;9.194;2023-02-28T07:32:04;21.80;;;10.83;;
5475;SDS011;2760;50.000;9.194;2023-02-28T07:34:31;16.20;;;10.20;;
5475;SDS011;2760;50.000;9.194;2023-02-28T07:36:58;25.07;;;11.07;;
5475;SDS011;2760;50.000;9.194;2023-02-28T07:39:28;12.80;;;7.97;;
5475;SDS011;2760;50.000;9.194;2023-02-28T07:41:56;10.93;;;7.27;;
5475;SDS011;2760;50.000;9.194;2023-02-28T07:44:25;12.63;;;5.70;;
5475;SDS011;2760;50.000;9.194;2023-02-28T07:46:52;6.70;;;4.50;;
5475;SDS011;2760;50.000;9.194;2023-02-28T07:49:21;6.10;;;4.17;;
5475;SDS011;2760;50.000;9.194;2023-02-28T07:51:47;6.97;;;5.23;;
5475;SDS011;2760;50.000;9.194;2023-02-28T07:54:15;7.47;;;5.07;;
5475;SDS011;2760;50.000;9.194;2023-02-28T07:56:42;8.13;;;5.33;;
5475;SDS011;2760;50.000;9.194;2023-02-28T07:59:09;5.30;;;4.20;;
5475;SDS011;2760;50.000;9.194;2023-02-28T08:01:36;9.97;;;5.10;;
5475;SDS011;2760;50.000;9.194;2023-02-28T08:04:04;5.00;;;4.43;;
5475;SDS011;2760;50.000;9.194;2023-02-28T08:06:32;15.20;;;5.60;;
5475;SDS011;2760;50.000;9.194;2023-02-28T08:08:59;10.30;;;5.80;;
5475;SDS011;2760;50.000;9.194;2023-02-28T08:11:26;9.40;;;5.80;;
5475;SDS011;2760;50.000;9.194;2023-02-28T08:13:54;10.00;;;6.60;;
5475;SDS011;2760;50.000;9.194;2023-02-28T08:16:21;8.10;;;6.30;;
5475;SDS011;2760;50.000;9.194;2023-02-28T08:18:48;8.20;;;5.77;;
5475;SDS011;2760;50.000;9.194;2023-02-28T08:21:16;13.47;;;5.60;;
5475;SDS011;2760;50.000;9.194;2023-02-28T08:23:45;5.80;;;5.20;;
5475;SDS011;2760;50.000;9.194;2023-02-28T08:26:13;9.00;;;6.03;;
5475;SDS011;2760;50.000;9.194;2023-02-28T08:28:42;7.27;;;6.13;;
5475;SDS011;2760;50.000;9.194;2023-02-28T08:31:10;8.40;;;6.20;;
5475;SDS011;2760;50.000;9.194;2023-02-28T08:33:39;7.27;;;5.60;;
5475;SDS011;2760;50.000;9.194;2023-02-28T08:36:07;9.50;;;6.17;;
5475;SDS011;2760;50.000;9.194;2023-02-28T08:38:35;6.30;;;5.27;;
5475;SDS011;2760;50.000;9.194;2023-02-28T08:41:04;8.50;;;5.73;;
5475;SDS011;2760;50.000;9.194;2023-02-28T08:43:34;7.00;;;5.37;;
5475;SDS011;2760;50.000;9.194;2023-02-28T08:46:01;8.00;;;6.20;;
5475;SDS011;2760;50.000;9.194;2023-02-28T08:48:29;8.23;;;6.47;;
5475;SDS011;2760;50.000;9.194;2023-02-28T08:50:58;12.10;;;6.50;;
5475;SDS011;2760;50.000;9.194;2023-02-28T08:53:26;7.20;;;5.43;;
5475;SDS011;2760;50.000;9.194;2023-02-28T08:55:58;6.73;;;5.97;;
5475;SDS011;2760;50.000;9.194;2023-02-28T08:58:27;8.80;;;5.43;;
5475;SDS011;2760;50.000;9.194;2023-02-28T09:00:54;8.57;;;5.70;;
5475;SDS011;2760;50.000;9.194;2023-02-28T09:03:22;8.67;;;5.30;;
5475;SDS011;2760;50.000;9.194;2023-02-28T09:05:53;5.37;;;4.87;;
5475;SDS011;2760;50.000;9.194;2023-02-28T09:08:21;10.33;;;6.23;;
5475;SDS011;2760;50.000;9.194;2023-02-28T09:10:48;8.80;;;6.43;;
5475;SDS011;2760;50.000;9.194;2023-02-28T09:13:16;10.13;;;5.67;;
5475;SDS011;2760;50.000;9.194;2023-02-28T09:15:44;7.73;;;5.63;;
5475;SDS011;2760;50.000;9.194;2023-02-28T09:18:12;6.73;;;6.07;;
5475;SDS011;2760;50.000;9.194;2023-02-28T09:20:40;6.97;;;5.50;;
5475;SDS011;2760;50.000;9.194;2023-02-28T09:23:07;7.60;;;6.03;;
5475;SDS011;2760;50.000;9.194;2023-02-28T09:25:35;6.07;;;5.23;;
5475;SDS011;2760;50.000;9.194;2023-02-28T09:28:03;10.40;;;6.73;;
5475;SDS011;2760;50.000;9.194;2023-02-28T09:30:30;7.77;;;4.93;;
5475;SDS011;2760;50.000;9.194;2023-02-28T09:32:59;7.47;;;5.83;;
5475;SDS011;2760;50.000;9.194;2023-02-28T09:35:26;14.67;;;6.00;;
5475;SDS011;2760;50.000;9.194;2023-02-28T09:37:53;8.80;;;6.30;;
5475;SDS011;2760;50.000;9.194;2023-02-28T09:40:24;5.90;;;5.30;;
5475;SDS011;2760;50.000;9.194;2023-02-28T09:42:53;8.17;;;6.60;;
5475;SDS011;2760;50.000;9.194;2023-02-28T09:45:22;13.03;;;5.90;;
5475;SDS011;2760;50.000;9.194;2023-02-28T09:47:54;9.30;;;6.20;;
5475;SDS011;2760;50.000;9.194;2023-02-28T09:50:29;6.50;;;5.40;;
5475;SDS011;2760;50.000;9.194;2023-02-28T09:53:02;7.60;;;6.07;;
5475;SDS011;2760;50.000;9.194;2023-02-28T09:55:37;6.97;;;5.30;;
5475;SDS011;2760;50.000;9.194;2023-02-28T09:58:10;5.23;;;4.50;;
5475;SDS011;2760;50.000;9.194;2023-02-28T10:00:50;7.60;;;5.60;;
5475;SDS011;2760;50.000;9.194;2023-02-28T10:03:51;19.03;;;4.70;;
5475;SDS011;2760;50.000;9.194;2023-02-28T10:06:26;11.57;;;6.60;;
5475;SDS011;2760;50.000;9.194;2023-02-28T10:08:58;5.97;;;4.50;;
5475;SDS011;2760;50.000;9.194;2023-02-28T10:11:28;9.30;;;5.80;;
5475;SDS011;2760;50.000;9.194;2023-02-28T10:13:59;8.57;;;6.17;;
5475;SDS011;2760;50.000;9.194;2023-02-28T10:16:30;6.67;;;5.73;;
5475;SDS011;2760;50.000;9.194;2023-02-28T10:19:02;7.77;;;5.33;;
5475;SDS011;2760;50.000;9.194;2023-02-28T10:21:34;7.30;;;5.90;;
5475;SDS011;2760;50.000;9.194;2023-02-28T10:24:04;15.93;;;6.10;;
5475;SDS011;2760;50.000;9.194;2023-02-28T10:26:42;8.57;;;5.80;;
5475;SDS011;2760;50.000;9.194;2023-02-28T10:29:11;10.43;;;5.60;;
5475;SDS011;2760;50.000;9.194;2023-02-28T10:31:38;6.23;;;4.30;;
5475;SDS011;2760;50.000;9.194;2023-02-28T10:34:07;5.90;;;4.90;;
5475;SDS011;2760;50.000;9.194;2023-02-28T10:36:40;8.13;;;5.40;;
5475;SDS011;2760;50.000;9.194;2023-02-28T10:42:02;4.80;;;4.30;;
5475;SDS011;2760;50.000;9.194;2023-02-28T10:44:29;9.13;;;5.50;;
5475;SDS011;2760;50.000;9.194;2023-02-28T10:46:57;8.83;;;6.00;;
5475;SDS011;2760;50.000;9.194;2023-02-28T10:49:25;6.03;;;5.43;;
5475;SDS011;2760;50.000;9.194;2023-02-28T10:51:59;7.00;;;5.07;;
5475;SDS011;2760;50.000;9.194;2023-02-28T10:54:27;10.93;;;6.40;;
5475;SDS011;2760;50.000;9.194;2023-02-28T10:57:05;9.73;;;6.40;;
5475;SDS011;2760;50.000;9.194;2023-02-28T10:59:34;7.27;;;5.57;;
5475;SDS011;2760;50.000;9.194;2023-02-28T11:02:01;8.80;;;5.93;;
5475;SDS011;2760;50.000;9.194;2023-02-28T11:04:53;10.10;;;5.50;;
5475;SDS011;2760;50.000;9.194;2023-02-28T11:07:22;11.87;;;7.30;;
5475;SDS011;2760;50.000;9.194;2023-02-28T11:09:52;9.37;;;6.60;;
5475;SDS011;2760;50.000;9.194;2023-02-28T11:12:20;9.17;;;6.20;;
5475;SDS011;2760;50.000;9.194;2023-02-28T11:14:49;8.53;;;6.23;;
5475;SDS011;2760;50.000;9.194;2023-02-28T11:17:20;6.17;;;5.57;;
5475;SDS011;2760;50.000;9.194;2023-02-28T11:19:49;11.50;;;6.40;;
5475;SDS011;2760;50.000;9.194;2023-02-28T11:22:20;5.43;;;4.93;;
5475;SDS011;2760;50.000;9.194;2023-02-28T11:24:54;16.30;;;6.20;;
5475;SDS011;2760;50.000;9.194;2023-02-28T11:27:40;10.00;;;6.60;;
5475;SDS011;2760;50.000;9.194;2023-02-28T11:30:24;8.73;;;6.93;;
5475;SDS011;2760;50.000;9.194;2023-02-28T11:32:54;12.80;;;8.27;;
5475;SDS011;2760;50.000;9.194;2023-02-28T11:35:23;10.20;;;7.80;;
5475;SDS011;2760;50.000;9.194;2023-02-28T11:37:56;9.37;;;6.80;;
5475;SDS011;2760;50.000;9.194;2023-02-28T11:40:25;9.37;;;6.67;;
5475;SDS011;2760;50.000;9.194;2023-02-28T11:42:59;11.00;;;6.93;;
5475;SDS011;2760;50.000;9.194;2023-02-28T11:45:45;6.83;;;5.60;;
5475;SDS011;2760;50.000;9.194;2023-02-28T11:48:22;10.97;;;6.57;;
5475;SDS011;2760;50.000;9.194;2023-02-28T11:50:56;8.00;;;6.27;;
5475;SDS011;2760;50.000;9.194;2023-02-28T11:53:38;9.33;;;5.87;;
5475;SDS011;2760;50.000;9.194;2023-02-28T11:56:14;7.70;;;4.50;;
5475;SDS011;2760;50.000;9.194;2023-02-28T11:58:50;9.30;;;6.83;;
5475;SDS011;2760;50.000;9.194;2023-02-28T12:01:32;10.63;;;7.07;;
5475;SDS011;2760;50.000;9.194;2023-02-28T12:04:13;8.47;;;6.23;;
5475;SDS011;2760;50.000;9.194;2023-02-28T12:06:50;8.37;;;6.17;;
5475;SDS011;2760;50.000;9.194;2023-02-28T12:09:32;8.90;;;6.20;;
5475;SDS011;2760;50.000;9.194;2023-02-28T12:12:13;5.63;;;4.57;;
5475;SDS011;2760;50.000;9.194;2023-02-28T12:15:05;10.23;;;7.00;;
5475;SDS011;2760;50.000;9.194;2023-02-28T12:17:55;11.27;;;7.50;;
5475;SDS011;2760;50.000;9.194;2023-02-28T12:20:34;9.90;;;6.70;;
5475;SDS011;2760;50.000;9.194;2023-02-28T12:23:11;9.00;;;6.77;;
5475;SDS011;2760;50.000;9.194;2023-02-28T12:25:55;9.10;;;7.00;;
5475;SDS011;2760;50.000;9.194;2023-02-28T12:28:35;8.10;;;6.00;;
5475;SDS011;2760;50.000;9.194;2023-02-28T12:31:09;13.33;;;7.17;;
5475;SDS011;2760;50.000;9.194;2023-02-28T12:33:41;9.90;;;7.20;;
5475;SDS011;2760;50.000;9.194;2023-02-28T12:36:11;7.63;;;6.10;;
5475;SDS011;2760;50.000;9.194;2023-02-28T12:38:44;9.90;;;6.90;;
5475;SDS011;2760;50.000;9.194;2023-02-28T12:41:17;9.40;;;5.70;;
5475;SDS011;2760;50.000;9.194;2023-02-28T12:43:46;10.27;;;7.27;;
5475;SDS011;2760;50.000;9.194;2023-02-28T12:46:19;7.23;;;6.43;;
5475;SDS011;2760;50.000;9.194;2023-02-28T12:48:50;7.23;;;5.53;;
5475;SDS011;2760;50.000;9.194;2023-02-28T12:51:21;10.03;;;5.43;;
5475;SDS011;2760;50.000;9.194;2023-02-28T12:53:53;7.50;;;6.00;;
5475;SDS011;2760;50.000;9.194;2023-02-28T12:56:32;9.47;;;6.60;;
5475;SDS011;2760;50.000;9.194;2023-02-28T12:59:03;9.93;;;7.07;;
5475;SDS011;2760;50.000;9.194;2023-02-28T13:01:46;11.83;;;7.00;;
5475;SDS011;2760;50.000;9.194;2023-02-28T13:07:43;6.90;;;6.13;;
5475;SDS011;2760;50.000;9.194;2023-02-28T13:10:46;7.83;;;6.40;;
5475;SDS011;2760;50.000;9.194;2023-02-28T13:13:17;13.80;;;7.07;;
5475;SDS011;2760;50.000;9.194;2023-02-28T13:15:58;8.60;;;6.30;;
5475;SDS011;2760;50.000;9.194;2023-02-28T13:18:29;11.33;;;7.23;;
5475;SDS011;2760;50.000;9.194;2023-02-28T13:20:58;8.93;;;6.13;;
5475;SDS011;2760;50.000;9.194;2023-02-28T13:29:28;7.37;;;5.97;;
5475;SDS011;2760;50.000;9.194;2023-02-28T13:38:24;10.40;;;7.20;;
5475;SDS011;2760;50.000;9.194;2023-02-28T13:44:05;11.87;;;6.90;;
5475;SDS011;2760;50.000;9.194;2023-02-28T13:46:35;6.80;;;6.03;;
5475;SDS011;2760;50.000;9.194;2023-02-28T13:49:27;9.17;;;5.83;;
5475;SDS011;2760;50.000;9.194;2023-02-28T13:52:02;9.93;;;6.90;;
5475;SDS011;2760;50.000;9.194;2023-02-28T13:54:42;7.30;;;6.40;;
5475;SDS011;2760;50.000;9.194;2023-02-28T13:57:22;11.73;;;8.00;;
5475;SDS011;2760;50.000;9.194;2023-02-28T14:00:02;8.47;;;6.77;;
5475;SDS011;2760;50.000;9.194;2023-02-28T14:02:55;10.07;;;7.20;;
5475;SDS011;2760;50.000;9.194;2023-02-28T14:05:36;11.00;;;7.30;;
5475;SDS011;2760;50.000;9.194;2023-02-28T14:08:04;14.80;;;8.70;;
5475;SDS011;2760;50.000;9.194;2023-02-28T14:10:41;11.03;;;6.50;;
5475;SDS011;2760;50.000;9.194;2023-02-28T14:13:17;9.30;;;6.70;;
5475;SDS011;2760;50.000;9.194;2023-02-28T14:16:09;11.13;;;6.83;;
5475;SDS011;2760;50.000;9.194;2023-02-28T14:18:39;15.60;;;7.93;;
5475;SDS011;2760;50.000;9.194;2023-02-28T14:21:11;8.70;;;6.33;;
5475;SDS011;2760;50.000;9.194;2023-02-28T14:27:03;8.10;;;6.57;;
5475;SDS011;2760;50.000;9.194;2023-02-28T14:33:01;12.10;;;6.63;;
5475;SDS011;2760;50.000;9.194;2023-02-28T14:35:43;9.37;;;6.07;;
5475;SDS011;2760;50.000;9.194;2023-02-28T14:38:21;10.03;;;6.83;;
5475;SDS011;2760;50.000;9.194;2023-02-28T14:40:53;14.40;;;8.23;;
5475;SDS011;2760;50.000;9.194;2023-02-28T14:43:24;10.03;;;6.63;;
5475;SDS011;2760;50.000;9.194;2023-02-28T14:45:53;9.90;;;6.37;;
5475;SDS011;2760;50.000;9.194;2023-02-28T14:48:22;8.83;;;6.40;;
5475;SDS011;2760;50.000;9.194;2023-02-28T14:50:51;10.00;;;7.33;;
5475;SDS011;2760;50.000;9.194;2023-02-28T14:53:22;8.07;;;5.87;;
5475;SDS011;2760;50.000;9.194;2023-02-28T14:55:52;7.73;;;4.67;;
5475;SDS011;2760;50.000;9.194;2023-02-28T14:58:21;7.73;;;5.73;;
5475;SDS011;2760;50.000;9.194;2023-02-28T15:00:50;7.50;;;5.80;;
5475;SDS011;2760;50.000;9.194;2023-02-28T15:03:19;9.57;;;7.33;;
5475;SDS011;2760;50.000;9.194;2023-02-28T15:05:52;8.27;;;5.83;;
5475;SDS011;2760;50.000;9.194;2023-02-28T15:08:21;13.13;;;8.13;;
5475;SDS011;2760;50.000;9.194;2023-02-28T15:10:53;9.60;;;7.50;;
5475;SDS011;2760;50.000;9.194;2023-02-28T15:13:21;9.70;;;7.10;;
5475;SDS011;2760;50.000;9.194;2023-02-28T15:15:51;8.07;;;5.90;;
5475;SDS011;2760;50.000;9.194;2023-02-28T15:18:23;8.47;;;6.40;;
5475;SDS011;2760;50.000;9.194;2023-02-28T15:20:55;8.73;;;6.63;;
5475;SDS011;2760;50.000;9.194;2023-02-28T15:23:25;12.73;;;6.53;;
5475;SDS011;2760;50.000;9.194;2023-02-28T15:25:52;11.53;;;7.20;;
5475;SDS011;2760;50.000;9.194;2023-02-28T15:28:20;11.73;;;8.50;;
5475;SDS011;2760;50.000;9.194;2023-02-28T15:30:50;13.17;;;7.93;;
5475;SDS011;2760;50.000;9.194;2023-02-28T15:33:23;7.73;;;6.67;;
5475;SDS011;2760;50.000;9.194;2023-02-28T15:35:51;11.37;;;6.43;;
5475;SDS011;2760;50.000;9.194;2023-02-28T15:38:32;7.97;;;6.50;;
5475;SDS011;2760;50.000;9.194;2023-02-28T15:41:00;12.80;;;6.57;;
5475;SDS011;2760;50.000;9.194;2023-02-28T15:43:28;11.10;;;7.50;;
5475;SDS011;2760;50.000;9.194;2023-02-28T15:45:57;11.93;;;6.37;;
5475;SDS011;2760;50.000;9.194;2023-02-28T15:48:28;7.10;;;6.37;;
5475;SDS011;2760;50.000;9.194;2023-02-28T15:50:57;8.83;;;6.83;;
5475;SDS011;2760;50.000;9.194;2023-02-28T15:53:28;8.23;;;6.00;;
5475;SDS011;2760;50.000;9.194;2023-02-28T15:56:00;11.83;;;7.13;;
5475;SDS011;2760;50.000;9.194;2023-02-28T15:58:29;8.03;;;6.27;;
5475;SDS011;2760;50.000;9.194;2023-02-28T16:01:08;11.03;;;5.83;;
5475;SDS011;2760;50.000;9.194;2023-02-28T16:03:45;11.33;;;7.27;;
5475;SDS011;2760;50.000;9.194;2023-02-28T16:06:36;13.47;;;6.77;;